createdAt,value
2023-05-11T00:00:32.710Z,26.95
2023-05-11T00:01:32.699Z,28.01
2023-05-11T00:02:32.751Z,25.84
2023-05-11T00:03:32.803Z,25.73
2023-05-11T00:04:32.700Z,26.59
2023-05-11T00:05:32.669Z,25.56
2023-05-11T00:06:32.656Z,28.81
2023-05-11T00:07:32.653Z,25.86
2023-05-11T00:08:32.636Z,26.06
2023-05-11T00:09:32.656Z,25.24
2023-05-11T00:10:32.647Z,28.32
2023-05-11T00:11:32.622Z,28.69
2023-05-11T00:12:32.619Z,26.76
2023-05-11T00:13:32.623Z,28.16
2023-05-11T00:14:32.622Z,28.00
2023-05-11T00:15:32.627Z,27.71
2023-05-11T00:16:32.671Z,26.87
2023-05-11T00:17:32.717Z,32.03
2023-05-11T00:18:32.652Z,30.18
2023-05-11T00:19:32.580Z,27.78
2023-05-11T00:20:32.583Z,32.46
2023-05-11T00:21:32.575Z,29.39
2023-05-11T00:22:32.557Z,30.61
2023-05-11T00:23:32.569Z,34.04
2023-05-11T00:24:32.537Z,36.45
2023-05-11T00:25:32.551Z,35.90
2023-05-11T00:26:32.549Z,36.83
2023-05-11T00:27:32.515Z,34.50
2023-05-11T00:28:32.515Z,34.39
2023-05-11T00:29:32.498Z,34.30
2023-05-11T00:30:32.500Z,33.12
2023-05-11T00:31:32.518Z,33.92
2023-05-11T00:32:32.491Z,33.09
2023-05-11T00:33:32.484Z,31.01
2023-05-11T00:34:32.481Z,32.15
2023-05-11T00:35:32.511Z,33.14
2023-05-11T00:36:32.536Z,29.32
2023-05-11T00:37:32.615Z,30.47
2023-05-11T00:38:32.597Z,33.44
2023-05-11T00:39:32.649Z,31.79
2023-05-11T00:40:32.695Z,29.57
2023-05-11T00:41:32.665Z,31.38
2023-05-11T00:42:32.693Z,32.58
2023-05-11T00:43:32.723Z,31.22
2023-05-11T00:44:32.745Z,30.40
2023-05-11T00:45:32.771Z,29.65
2023-05-11T00:46:32.827Z,30.95
2023-05-11T00:47:32.846Z,30.01
2023-05-11T00:48:32.883Z,31.47
2023-05-11T00:49:32.905Z,30.56
2023-05-11T00:50:32.934Z,30.89
2023-05-11T00:51:32.948Z,29.04
2023-05-11T00:52:33.001Z,29.99
2023-05-11T00:53:33.005Z,29.56
2023-05-11T00:54:33.050Z,30.64
2023-05-11T00:55:33.054Z,32.80
2023-05-11T00:56:33.102Z,32.19
2023-05-11T00:57:33.109Z,31.04
2023-05-11T00:58:33.194Z,27.94
2023-05-11T00:59:33.180Z,29.10
2023-05-11T01:00:33.250Z,28.46
2023-05-11T01:01:33.229Z,29.47
2023-05-11T01:02:33.371Z,31.17
2023-05-11T01:03:33.300Z,29.32
2023-05-11T01:04:33.373Z,30.97
2023-05-11T01:05:33.378Z,32.08
2023-05-11T01:06:33.427Z,31.70
2023-05-11T01:07:33.482Z,34.13
2023-05-11T01:08:33.486Z,35.97
2023-05-11T01:09:33.558Z,34.42
2023-05-11T01:10:33.568Z,36.55
2023-05-11T01:11:33.613Z,36.45
2023-05-11T01:12:33.645Z,33.48
2023-05-11T01:13:33.666Z,35.38
2023-05-11T01:14:33.727Z,34.45
2023-05-11T01:15:33.755Z,36.81
2023-05-11T01:16:33.827Z,36.61
2023-05-11T01:17:33.830Z,34.83
2023-05-11T01:18:33.886Z,37.87
2023-05-11T01:19:33.908Z,34.58
2023-05-11T01:20:33.921Z,33.78
2023-05-11T01:21:33.953Z,32.27
2023-05-11T01:22:33.999Z,30.50
2023-05-11T01:23:34.027Z,29.71
2023-05-11T01:24:34.057Z,27.86
2023-05-11T01:25:34.086Z,29.00
2023-05-11T01:26:34.111Z,31.30
2023-05-11T01:27:34.146Z,30.56
2023-05-11T01:28:34.185Z,28.26
2023-05-11T01:29:34.215Z,27.54
2023-05-11T01:30:34.265Z,26.44
2023-05-11T01:31:34.323Z,25.67
2023-05-11T01:32:36.423Z,27.18
2023-05-11T01:33:34.504Z,31.71
2023-05-11T01:34:34.556Z,31.02
2023-05-11T01:35:34.569Z,29.15
2023-05-11T01:36:34.606Z,28.86
2023-05-11T01:37:34.652Z,27.96
2023-05-11T01:38:34.680Z,27.60
2023-05-11T01:39:34.716Z,25.57
2023-05-11T01:40:34.755Z,26.77
2023-05-11T01:41:34.801Z,26.56
2023-05-11T01:42:34.839Z,27.14
2023-05-11T01:43:34.868Z,28.05
2023-05-11T01:44:34.909Z,27.08
2023-05-11T01:45:34.944Z,25.77
2023-05-11T01:46:35.099Z,27.64
2023-05-11T01:47:35.048Z,26.27
2023-05-11T01:48:35.068Z,28.21
2023-05-11T01:49:35.098Z,29.44
2023-05-11T01:50:35.134Z,28.36
2023-05-11T01:51:35.193Z,25.00
2023-05-11T01:52:35.223Z,26.02
2023-05-11T01:53:35.263Z,24.98
2023-05-11T01:54:35.294Z,28.73
2023-05-11T01:55:35.346Z,25.70
2023-05-11T01:56:35.363Z,27.16
2023-05-11T01:57:35.420Z,28.37
2023-05-11T01:58:35.465Z,25.88
2023-05-11T01:59:35.513Z,27.62
2023-05-11T02:00:35.539Z,25.05
2023-05-11T02:01:35.642Z,25.36
2023-05-11T02:02:35.679Z,25.00
2023-05-11T02:03:35.858Z,26.19
2023-05-11T02:04:35.688Z,26.77
2023-05-11T02:05:35.749Z,28.05
2023-05-11T02:06:35.763Z,27.47
2023-05-11T02:07:35.827Z,28.36
2023-05-11T02:08:35.861Z,26.85
2023-05-11T02:09:35.913Z,25.66
2023-05-11T02:10:35.952Z,26.02
2023-05-11T02:11:35.975Z,27.84
2023-05-11T02:12:36.052Z,26.14
2023-05-11T02:13:36.063Z,27.76
2023-05-11T02:14:36.112Z,25.40
2023-05-11T02:15:36.168Z,27.17
2023-05-11T02:16:36.193Z,27.72
2023-05-11T02:17:36.269Z,29.22
2023-05-11T02:18:36.315Z,27.97
2023-05-11T02:19:36.327Z,30.91
2023-05-11T02:20:36.371Z,30.25
2023-05-11T02:21:36.409Z,29.58
2023-05-11T02:22:36.457Z,29.15
2023-05-11T02:23:36.503Z,28.96
2023-05-11T02:24:36.548Z,30.55
2023-05-11T02:25:36.601Z,27.78
2023-05-11T02:26:36.644Z,26.19
2023-05-11T02:27:36.697Z,25.18
2023-05-11T02:28:36.753Z,25.00
2023-05-11T02:29:36.781Z,27.50
2023-05-11T02:30:36.819Z,27.18
2023-05-11T02:31:36.925Z,27.95
2023-05-11T02:32:36.917Z,27.92
2023-05-11T02:33:36.979Z,27.33
2023-05-11T02:34:37.021Z,29.88
2023-05-11T02:35:37.054Z,29.21
2023-05-11T02:36:37.093Z,30.54
2023-05-11T02:37:37.146Z,29.67
2023-05-11T02:38:37.198Z,31.27
2023-05-11T02:39:37.230Z,30.94
2023-05-11T02:40:37.292Z,32.71
2023-05-11T02:41:37.343Z,34.33
2023-05-11T02:42:37.375Z,32.76
2023-05-11T02:43:37.420Z,33.65
2023-05-11T02:44:37.474Z,33.77
2023-05-11T02:45:37.529Z,35.04
2023-05-11T02:46:37.637Z,34.82
2023-05-11T02:47:37.653Z,35.39
2023-05-11T02:48:37.664Z,36.27
2023-05-11T02:49:37.705Z,36.57
2023-05-11T02:50:37.769Z,36.43
2023-05-11T02:51:37.809Z,36.65
2023-05-11T02:52:37.888Z,36.99
2023-05-11T02:53:37.897Z,35.93
2023-05-11T02:54:37.936Z,38.64
2023-05-11T02:55:37.981Z,37.05
2023-05-11T02:56:38.028Z,36.78
2023-05-11T02:57:38.077Z,36.70
2023-05-11T02:58:38.192Z,37.24
2023-05-11T02:59:38.183Z,36.40
2023-05-11T03:00:38.299Z,35.15
2023-05-11T03:01:38.361Z,36.12
2023-05-11T03:02:38.479Z,33.37
2023-05-11T03:03:38.472Z,35.36
2023-05-11T03:04:38.455Z,34.92
2023-05-11T03:05:38.497Z,34.13
2023-05-11T03:06:38.557Z,32.34
2023-05-11T03:07:38.584Z,34.55
2023-05-11T03:08:38.653Z,35.91
2023-05-11T03:09:38.686Z,36.09
2023-05-11T03:10:38.757Z,36.10
2023-05-11T03:11:38.794Z,37.81
2023-05-11T03:12:38.828Z,37.10
2023-05-11T03:13:38.895Z,37.92
2023-05-11T03:14:38.938Z,34.75
2023-05-11T03:15:38.972Z,33.66
2023-05-11T03:16:39.089Z,34.62
2023-05-11T03:17:39.119Z,36.34
2023-05-11T03:18:39.215Z,37.66
2023-05-11T03:19:39.203Z,37.38
2023-05-11T03:20:39.235Z,39.10
2023-05-11T03:21:39.265Z,37.58
2023-05-11T03:22:39.333Z,40.56
2023-05-11T03:23:39.399Z,37.18
2023-05-11T03:24:39.435Z,37.74
2023-05-11T03:25:39.504Z,36.76
2023-05-11T03:26:39.561Z,38.28
2023-05-11T03:27:39.616Z,38.65
2023-05-11T03:28:39.666Z,38.51
2023-05-11T03:29:39.718Z,39.81
2023-05-11T03:30:39.776Z,38.30
2023-05-11T03:31:39.862Z,39.00
2023-05-11T03:32:39.888Z,37.93
2023-05-11T03:33:39.925Z,38.53
2023-05-11T03:34:39.991Z,38.24
2023-05-11T03:35:40.027Z,38.83
2023-05-11T03:36:40.075Z,37.47
2023-05-11T03:37:40.152Z,38.31
2023-05-11T03:38:40.179Z,38.44
2023-05-11T03:39:40.242Z,36.50
2023-05-11T03:40:40.290Z,37.50
2023-05-11T03:41:40.343Z,36.50
2023-05-11T03:42:40.412Z,37.15
2023-05-11T03:43:40.488Z,37.59
2023-05-11T03:44:40.551Z,39.43
2023-05-11T03:45:40.594Z,39.50
2023-05-11T03:46:40.678Z,42.44
2023-05-11T03:47:40.753Z,39.74
2023-05-11T03:48:40.772Z,39.51
2023-05-11T03:49:40.817Z,40.88
2023-05-11T03:50:40.877Z,40.54
2023-05-11T03:51:40.950Z,40.76
2023-05-11T03:52:41.012Z,41.69
2023-05-11T03:53:41.075Z,45.40
2023-05-11T03:54:41.144Z,41.66
2023-05-11T03:55:41.191Z,43.38
2023-05-11T03:56:41.257Z,42.09
2023-05-11T03:57:41.304Z,42.20
2023-05-11T03:58:41.361Z,41.09
2023-05-11T03:59:41.419Z,42.95
2023-05-11T04:00:41.486Z,44.84
2023-05-11T04:01:41.554Z,44.90
2023-05-11T04:02:41.652Z,44.14
2023-05-11T04:03:41.753Z,44.07
2023-05-11T04:04:41.734Z,45.76
2023-05-11T04:05:41.791Z,46.59
2023-05-11T04:06:41.839Z,46.27
2023-05-11T04:07:41.887Z,45.69
2023-05-11T04:08:41.961Z,45.77
2023-05-11T04:09:42.012Z,44.00
2023-05-11T04:10:42.081Z,44.86
2023-05-11T04:11:42.209Z,44.32
2023-05-11T04:12:42.237Z,43.77
2023-05-11T04:13:42.259Z,44.54
2023-05-11T04:14:42.311Z,45.11
2023-05-11T04:15:42.395Z,44.14
2023-05-11T04:16:42.490Z,45.72
2023-05-11T04:17:42.524Z,46.96
2023-05-11T04:18:42.616Z,49.57
2023-05-11T04:19:42.620Z,49.59
2023-05-11T04:20:42.654Z,50.80
2023-05-11T04:21:42.729Z,47.55
2023-05-11T04:22:42.785Z,48.80
2023-05-11T04:23:42.831Z,49.06
2023-05-11T04:24:42.896Z,47.47
2023-05-11T04:25:42.969Z,46.36
2023-05-11T04:26:43.010Z,45.15
2023-05-11T04:27:43.092Z,45.18
2023-05-11T04:28:43.142Z,44.43
2023-05-11T04:29:43.184Z,44.01
2023-05-11T04:30:43.247Z,43.02
2023-05-11T04:31:43.349Z,43.97
2023-05-11T04:32:43.397Z,41.63
2023-05-11T04:33:43.426Z,39.98
2023-05-11T04:34:43.513Z,38.93
2023-05-11T04:35:43.545Z,41.43
2023-05-11T04:36:43.612Z,41.44
2023-05-11T04:37:43.654Z,38.24
2023-05-11T04:38:43.728Z,38.57
2023-05-11T04:39:43.783Z,37.43
2023-05-11T04:40:43.856Z,38.33
2023-05-11T04:41:43.918Z,37.66
2023-05-11T04:42:43.989Z,37.61
2023-05-11T04:43:44.031Z,38.52
2023-05-11T04:44:44.078Z,35.87
2023-05-11T04:45:44.133Z,38.09
2023-05-11T04:46:44.230Z,38.72
2023-05-11T04:47:44.338Z,37.76
2023-05-11T04:48:44.296Z,35.47
2023-05-11T04:49:44.368Z,36.94
2023-05-11T04:50:44.430Z,32.71
2023-05-11T04:51:44.474Z,32.48
2023-05-11T04:52:44.570Z,33.87
2023-05-11T04:53:44.741Z,37.35
2023-05-11T04:54:44.668Z,34.69
2023-05-11T04:55:44.724Z,32.74
2023-05-11T04:56:44.766Z,32.94
2023-05-11T04:57:44.845Z,37.10
2023-05-11T04:58:44.905Z,34.76
2023-05-11T04:59:45.155Z,34.74
2023-05-11T05:00:45.058Z,36.62
2023-05-11T05:01:45.097Z,36.69
2023-05-11T05:02:45.159Z,34.88
2023-05-11T05:03:45.315Z,38.63
2023-05-11T05:04:45.244Z,40.24
2023-05-11T05:05:45.316Z,41.05
2023-05-11T05:06:45.366Z,41.30
2023-05-11T05:07:45.419Z,42.09
2023-05-11T05:08:45.471Z,41.68
2023-05-11T05:09:45.679Z,41.85
2023-05-11T05:10:45.584Z,40.53
2023-05-11T05:11:45.638Z,39.57
2023-05-11T05:12:45.699Z,38.82
2023-05-11T05:13:45.773Z,34.21
2023-05-11T05:14:45.816Z,30.82
2023-05-11T05:15:45.898Z,29.47
2023-05-11T05:16:45.985Z,28.37
2023-05-11T05:17:46.073Z,28.37
2023-05-11T05:18:46.094Z,25.88
2023-05-11T05:19:46.119Z,26.28
2023-05-11T05:20:46.183Z,27.43
2023-05-11T05:21:46.257Z,28.34
2023-05-11T05:22:46.313Z,26.80
2023-05-11T05:23:46.364Z,26.78
2023-05-11T05:24:46.436Z,27.43
2023-05-11T05:25:46.507Z,26.84
2023-05-11T05:26:46.562Z,26.75
2023-05-11T05:27:46.612Z,25.21
2023-05-11T05:28:46.692Z,30.10
2023-05-11T05:29:46.733Z,30.50
2023-05-11T05:30:46.840Z,28.40
2023-05-11T05:31:46.880Z,42.17
2023-05-11T05:32:47.022Z,52.14
2023-05-11T05:33:46.970Z,63.62
2023-05-11T05:34:47.023Z,76.18
2023-05-11T05:35:47.090Z,86.23
2023-05-11T05:36:47.170Z,89.78
2023-05-11T05:37:47.223Z,95.91
2023-05-11T05:38:47.281Z,101.84
2023-05-11T05:39:48.524Z,106.31
2023-05-11T05:40:47.409Z,106.87
2023-05-11T05:41:47.480Z,115.73
2023-05-11T05:42:47.532Z,131.46
2023-05-11T05:43:47.591Z,135.91
2023-05-11T05:44:47.648Z,148.81
2023-05-11T05:45:47.709Z,160.69
2023-05-11T05:46:47.806Z,174.33
2023-05-11T05:47:47.876Z,193.59
2023-05-11T05:48:47.785Z,193.97
2023-05-11T05:49:47.826Z,195.47
2023-05-11T05:50:47.840Z,194.84
2023-05-11T05:51:47.881Z,188.08
2023-05-11T05:52:47.888Z,201.04
2023-05-11T05:53:47.903Z,176.71
2023-05-11T05:54:47.960Z,190.41
2023-05-11T05:55:47.993Z,204.91
2023-05-11T05:56:47.961Z,212.66
2023-05-11T05:57:47.973Z,214.50
2023-05-11T05:58:47.980Z,213.39
2023-05-11T05:59:48.033Z,203.71
2023-05-11T06:00:47.980Z,192.71
2023-05-11T06:01:47.988Z,208.45
2023-05-11T06:02:48.030Z,220.41
2023-05-11T06:03:48.206Z,226.69
2023-05-11T06:04:48.031Z,231.69
2023-05-11T06:05:48.009Z,234.82
2023-05-11T06:06:47.999Z,240.85
2023-05-11T06:08:48.013Z,230.13
2023-05-11T06:09:47.987Z,243.88
2023-05-11T06:10:48.260Z,222.39
2023-05-11T06:11:47.984Z,215.44
2023-05-11T06:12:47.981Z,217.40
2023-05-11T06:13:47.966Z,228.85
2023-05-11T06:14:48.008Z,240.20
2023-05-11T06:15:48.076Z,249.44
2023-05-11T06:16:48.069Z,250.00
2023-05-11T06:17:48.088Z,249.13
2023-05-11T06:18:48.122Z,245.42
2023-05-11T06:19:48.121Z,249.31
2023-05-11T06:20:48.173Z,250.00
2023-05-11T06:21:48.245Z,250.00
2023-05-11T06:22:48.291Z,247.83
2023-05-11T06:23:48.379Z,250.35
2023-05-11T06:24:48.457Z,244.28
2023-05-11T06:25:48.500Z,242.32
2023-05-11T06:26:48.570Z,239.98
2023-05-11T06:27:48.615Z,239.11
2023-05-11T06:28:48.689Z,238.63
2023-05-11T06:29:48.759Z,237.59
2023-05-11T06:30:49.226Z,238.37
2023-05-11T06:31:48.876Z,237.91
2023-05-11T06:32:49.006Z,235.50
2023-05-11T06:33:48.974Z,236.17
2023-05-11T06:34:49.039Z,229.11
2023-05-11T06:35:49.228Z,229.79
2023-05-11T06:36:49.155Z,175.99
2023-05-11T06:37:49.204Z,135.71
2023-05-11T06:38:49.182Z,116.65
2023-05-11T06:39:49.213Z,107.85
2023-05-11T06:40:49.741Z,108.46
2023-05-11T06:41:49.323Z,118.09
2023-05-11T06:42:49.375Z,128.52
2023-05-11T06:43:49.453Z,137.85
2023-05-11T06:44:49.527Z,154.53
2023-05-11T06:45:49.758Z,165.82
2023-05-11T06:46:49.617Z,176.12
2023-05-11T06:47:49.668Z,186.29
2023-05-11T06:48:49.648Z,191.55
2023-05-11T06:49:49.693Z,192.64
2023-05-11T06:50:49.753Z,194.33
2023-05-11T06:51:49.711Z,192.82
2023-05-11T06:52:49.713Z,193.65
2023-05-11T06:53:49.695Z,198.43
2023-05-11T06:54:49.702Z,203.59
2023-05-11T06:55:49.758Z,201.69
2023-05-11T06:56:49.760Z,205.27
2023-05-11T06:57:49.828Z,209.71
2023-05-11T06:58:49.857Z,207.95
2023-05-11T06:59:49.903Z,199.90
2023-05-11T07:00:50.017Z,204.27
2023-05-11T07:01:50.031Z,189.86
2023-05-11T07:02:50.139Z,185.78
2023-05-11T07:03:51.373Z,191.60
2023-05-11T07:04:50.201Z,182.21
2023-05-11T07:05:50.243Z,196.72
2023-05-11T07:06:50.134Z,184.84
2023-05-11T07:07:50.145Z,180.76
2023-05-11T07:08:50.122Z,174.25
2023-05-11T07:09:50.133Z,165.46
2023-05-11T07:10:50.264Z,188.35
2023-05-11T07:11:50.105Z,203.26
2023-05-11T07:12:50.095Z,207.50
2023-05-11T07:13:50.101Z,207.38
2023-05-11T07:14:50.099Z,204.73
2023-05-11T07:15:50.295Z,203.63
2023-05-11T07:16:50.137Z,207.12
2023-05-11T07:17:50.126Z,211.83
2023-05-11T07:18:50.122Z,213.44
2023-05-11T07:19:50.058Z,214.39
2023-05-11T07:20:50.294Z,203.64
2023-05-11T07:21:50.046Z,207.70
2023-05-11T07:22:50.037Z,193.22
2023-05-11T07:23:50.027Z,199.82
2023-05-11T07:24:50.046Z,191.70
2023-05-11T07:25:50.248Z,197.53
2023-05-11T07:26:50.014Z,200.45
2023-05-11T07:27:50.000Z,187.26
2023-05-11T07:28:49.992Z,184.73
2023-05-11T07:29:49.978Z,178.37
2023-05-11T07:30:50.250Z,177.89
2023-05-11T07:31:50.019Z,201.09
2023-05-11T07:32:50.013Z,210.49
2023-05-11T07:33:49.938Z,206.64
2023-05-11T07:34:49.958Z,159.18
2023-05-11T07:35:49.927Z,129.99
2023-05-11T07:36:49.917Z,111.97
2023-05-11T07:37:49.922Z,99.15
2023-05-11T07:38:49.897Z,85.40
2023-05-11T07:39:49.896Z,75.28
2023-05-11T07:40:49.910Z,65.64
2023-05-11T07:41:49.897Z,55.51
2023-05-11T07:42:49.873Z,49.25
2023-05-11T07:43:49.885Z,51.69
2023-05-11T07:44:49.855Z,45.90
2023-05-11T07:45:49.926Z,46.20
2023-05-11T07:46:50.115Z,44.33
2023-05-11T07:47:49.886Z,56.71
2023-05-11T07:48:53.293Z,86.84
2023-05-11T07:49:50.843Z,87.77
2023-05-11T07:50:49.865Z,94.89
2023-05-11T07:51:49.842Z,115.30
2023-05-11T07:52:49.813Z,156.56
2023-05-11T07:53:49.802Z,246.30
2023-05-11T07:54:49.801Z,265.84
2023-05-11T07:55:50.290Z,247.62
2023-05-11T07:56:49.785Z,238.30
2023-05-11T07:57:49.781Z,236.94
2023-05-11T07:58:49.778Z,230.44
2023-05-11T07:59:49.775Z,227.92
2023-05-11T08:00:49.805Z,227.54
2023-05-11T08:01:49.989Z,228.43
2023-05-11T08:02:49.819Z,227.39
2023-05-11T08:03:49.737Z,223.55
2023-05-11T08:04:49.755Z,212.41
2023-05-11T08:05:50.342Z,213.92
2023-05-11T08:06:49.847Z,215.14
2023-05-11T08:07:49.905Z,215.81
2023-05-11T08:08:49.936Z,217.26
2023-05-11T08:09:50.033Z,214.41
2023-05-11T08:10:50.038Z,212.36
2023-05-11T08:11:50.084Z,213.84
2023-05-11T08:12:50.120Z,217.03
2023-05-11T08:13:50.135Z,216.28
2023-05-11T08:14:50.175Z,212.23
2023-05-11T08:15:50.343Z,194.24
2023-05-11T08:16:50.317Z,191.35
2023-05-11T08:17:50.277Z,180.72
2023-05-11T08:18:50.339Z,190.67
2023-05-11T08:19:50.329Z,177.84
2023-05-11T08:20:50.784Z,179.16
2023-05-11T08:21:50.393Z,116.85
2023-05-11T08:22:50.463Z,59.35
2023-05-11T08:23:50.439Z,33.86
2023-05-11T08:24:50.505Z,27.06
2023-05-11T08:25:50.774Z,27.59
2023-05-11T08:26:50.538Z,32.57
2023-05-11T08:27:50.560Z,24.43
2023-05-11T08:28:50.587Z,31.71
2023-05-11T08:29:50.612Z,40.56
2023-05-11T08:30:50.634Z,37.24
2023-05-11T08:31:50.835Z,48.17
2023-05-11T08:32:58.440Z,29.23
2023-05-11T08:33:51.758Z,29.95
2023-05-11T08:34:50.779Z,34.67
2023-05-11T08:35:50.677Z,47.51
2023-05-11T08:36:50.678Z,71.06
2023-05-11T08:37:50.667Z,109.30
2023-05-11T08:38:50.682Z,116.11
2023-05-11T08:39:50.666Z,131.00
2023-05-11T08:40:50.697Z,148.90
2023-05-11T08:41:50.673Z,157.85
2023-05-11T08:42:50.645Z,164.55
2023-05-11T08:43:50.637Z,169.83
2023-05-11T08:44:50.629Z,165.36
2023-05-11T08:45:50.657Z,172.78
2023-05-11T08:46:56.222Z,174.59
2023-05-11T08:47:51.636Z,169.99
2023-05-11T08:48:50.652Z,172.98
2023-05-11T08:49:50.579Z,176.10
2023-05-11T08:50:50.593Z,166.11
2023-05-11T08:51:50.796Z,179.38
2023-05-11T08:52:50.580Z,174.16
2023-05-11T08:53:50.581Z,179.99
2023-05-11T08:54:50.571Z,256.68
2023-05-11T08:55:50.561Z,257.00
2023-05-11T08:56:50.615Z,249.71
2023-05-11T08:57:50.667Z,216.50
2023-05-11T08:58:50.757Z,195.72
2023-05-11T08:59:50.760Z,196.17
2023-05-11T09:00:50.811Z,197.75
2023-05-11T09:01:51.348Z,199.07
2023-05-11T09:02:50.957Z,204.18
2023-05-11T09:03:50.951Z,208.12
2023-05-11T09:04:51.061Z,209.02
2023-05-11T09:05:51.127Z,209.75
2023-05-11T09:06:51.321Z,207.29
2023-05-11T09:07:51.069Z,214.96
2023-05-11T09:08:51.099Z,203.99
2023-05-11T09:09:51.137Z,201.70
2023-05-11T09:10:51.191Z,213.46
2023-05-11T09:11:51.311Z,219.40
2023-05-11T09:12:51.230Z,224.73
2023-05-11T09:13:51.277Z,229.21
2023-05-11T09:14:51.296Z,231.77
2023-05-11T09:15:51.316Z,225.97
2023-05-11T09:16:51.401Z,218.27
2023-05-11T09:17:51.392Z,224.12
2023-05-11T09:18:51.476Z,227.61
2023-05-11T09:19:51.424Z,167.73
2023-05-11T09:20:51.427Z,106.95
2023-05-11T09:21:51.491Z,96.76
2023-05-11T09:22:51.502Z,101.11
2023-05-11T09:23:51.539Z,74.88
2023-05-11T09:24:51.572Z,60.53
2023-05-11T09:25:51.630Z,79.36
2023-05-11T09:26:51.654Z,74.25
2023-05-11T09:27:51.701Z,79.42
2023-05-11T09:29:52.185Z,50.22
2023-05-11T09:30:51.823Z,35.34
2023-05-11T09:31:52.371Z,37.76
2023-05-11T09:32:51.965Z,43.77
2023-05-11T09:33:51.926Z,42.10
2023-05-11T09:34:51.950Z,40.81
2023-05-11T09:35:51.961Z,31.81
2023-05-11T09:36:52.306Z,31.04
2023-05-11T09:37:51.962Z,27.94
2023-05-11T09:38:57.360Z,25.48
2023-05-11T09:40:22.453Z,21.14
2023-05-11T09:40:52.955Z,23.86
2023-05-11T09:41:52.668Z,22.74
2023-05-11T09:42:52.010Z,23.61
2023-05-11T09:43:51.952Z,24.85
2023-05-11T09:44:51.934Z,26.70
2023-05-11T09:45:51.945Z,25.15
2023-05-11T09:46:52.413Z,28.59
2023-05-11T09:47:51.954Z,28.91
2023-05-11T09:48:51.906Z,31.26
2023-05-11T09:49:51.900Z,25.48
2023-05-11T09:50:51.908Z,26.68
2023-05-11T09:51:52.312Z,26.40
2023-05-11T09:52:51.875Z,30.48
2023-05-11T09:53:51.914Z,25.90
2023-05-11T09:54:52.045Z,25.49
2023-05-11T09:55:51.880Z,23.37
2023-05-11T09:56:51.864Z,26.30
2023-05-11T09:57:51.842Z,27.61
2023-05-11T09:58:51.896Z,31.75
2023-05-11T09:59:51.822Z,29.88
2023-05-11T10:00:51.826Z,28.28
2023-05-11T10:01:51.896Z,24.63
2023-05-11T10:02:51.861Z,25.36
2023-05-11T10:03:52.032Z,25.00
2023-05-11T10:04:51.916Z,26.80
2023-05-11T10:05:51.806Z,27.50
2023-05-11T10:06:51.769Z,25.00
2023-05-11T10:07:51.780Z,27.62
2023-05-11T10:08:51.811Z,27.38
2023-05-11T10:09:51.801Z,25.75
2023-05-11T10:10:51.852Z,25.55
2023-05-11T10:11:51.927Z,26.58
2023-05-11T10:12:51.955Z,24.69
2023-05-11T10:13:52.034Z,26.55
2023-05-11T10:14:52.101Z,26.08
2023-05-11T10:15:52.229Z,26.50
2023-05-11T10:16:52.225Z,29.89
2023-05-11T10:17:52.280Z,29.04
2023-05-11T10:18:52.300Z,30.66
2023-05-11T10:19:52.324Z,31.95
2023-05-11T10:20:52.381Z,31.91
2023-05-11T10:21:52.439Z,34.39
2023-05-11T10:22:52.450Z,29.35
2023-05-11T10:23:52.431Z,25.79
2023-05-11T10:24:52.453Z,26.43
2023-05-11T10:25:52.485Z,33.47
2023-05-11T10:26:52.489Z,52.85
2023-05-11T10:27:52.504Z,68.12
2023-05-11T10:28:52.505Z,85.69
2023-05-11T10:29:52.525Z,101.34
2023-05-11T10:30:52.558Z,112.90
2023-05-11T10:31:52.662Z,131.27
2023-05-11T10:32:52.705Z,177.79
2023-05-11T10:33:52.656Z,196.37
2023-05-11T10:34:52.660Z,181.01
2023-05-11T10:35:54.167Z,175.75
2023-05-11T10:36:52.736Z,172.52
2023-05-11T10:37:52.771Z,161.96
2023-05-11T10:38:52.804Z,178.99
2023-05-11T10:39:52.835Z,177.61
2023-05-11T10:40:52.826Z,167.15
2023-05-11T10:41:52.841Z,154.02
2023-05-11T10:42:52.857Z,164.14
2023-05-11T10:43:52.864Z,158.81
2023-05-11T10:44:52.884Z,158.97
2023-05-11T10:45:52.958Z,161.02
2023-05-11T10:46:52.868Z,158.06
2023-05-11T10:47:52.899Z,163.23
2023-05-11T10:48:52.922Z,165.67
2023-05-11T10:49:52.982Z,164.90
2023-05-11T10:50:53.025Z,168.69
2023-05-11T10:51:53.105Z,168.74
2023-05-11T10:52:53.151Z,171.43
2023-05-11T10:53:53.208Z,167.27
2023-05-11T10:54:53.284Z,172.63
2023-05-11T10:55:53.324Z,184.68
2023-05-11T10:56:53.369Z,170.74
2023-05-11T10:57:53.381Z,180.99
2023-05-11T10:58:53.395Z,181.50
2023-05-11T10:59:53.415Z,185.18
2023-05-11T11:00:53.518Z,185.78
2023-05-11T11:01:53.619Z,188.41
2023-05-11T11:02:53.538Z,178.38
2023-05-11T11:03:53.500Z,182.22
2023-05-11T11:04:53.552Z,183.68
2023-05-11T11:05:53.611Z,188.23
2023-05-11T11:06:53.879Z,190.41
2023-05-11T11:07:53.585Z,197.05
2023-05-11T11:08:53.612Z,222.79
2023-05-11T11:09:53.685Z,221.11
2023-05-11T11:10:53.691Z,222.35
2023-05-11T11:11:53.728Z,218.68
2023-05-11T11:12:53.726Z,224.91
2023-05-11T11:13:53.712Z,216.81
2023-05-11T11:14:53.745Z,221.37
2023-05-11T11:15:53.745Z,234.23
2023-05-11T11:16:53.793Z,228.64
2023-05-11T11:17:53.781Z,199.53
2023-05-11T11:18:53.899Z,211.06
2023-05-11T11:19:53.797Z,196.60
2023-05-11T11:20:53.818Z,181.32
2023-05-11T11:21:53.857Z,171.53
2023-05-11T11:22:53.879Z,165.85
2023-05-11T11:23:53.936Z,166.71
2023-05-11T11:24:53.996Z,172.82
2023-05-11T11:25:54.035Z,175.91
2023-05-11T11:26:54.090Z,173.42
2023-05-11T11:27:54.129Z,178.06
2023-05-11T11:28:54.227Z,183.72
2023-05-11T11:29:54.233Z,172.38
2023-05-11T11:30:54.299Z,169.42
2023-05-11T11:31:54.334Z,171.89
2023-05-11T11:32:54.581Z,184.21
2023-05-11T11:33:54.429Z,193.84
2023-05-11T11:34:54.473Z,201.04
2023-05-11T11:35:54.514Z,212.86
2023-05-11T11:36:54.561Z,218.54
2023-05-11T11:37:54.606Z,216.94
2023-05-11T11:38:54.635Z,214.19
2023-05-11T11:39:55.799Z,215.31
2023-05-11T11:40:55.671Z,215.32
2023-05-11T11:41:54.659Z,215.61
2023-05-11T11:42:54.651Z,216.62
2023-05-11T11:43:54.669Z,218.99
2023-05-11T11:44:54.617Z,220.77
2023-05-11T11:45:54.662Z,222.24
2023-05-11T11:46:54.784Z,220.31
2023-05-11T11:47:54.670Z,220.43
2023-05-11T11:48:55.067Z,219.98
2023-05-11T11:49:54.651Z,218.67
2023-05-11T11:50:54.597Z,216.69
2023-05-11T11:51:54.591Z,217.07
2023-05-11T11:52:54.584Z,217.44
2023-05-11T11:53:54.567Z,215.19
2023-05-11T11:54:54.554Z,214.48
2023-05-11T11:55:54.560Z,213.83
2023-05-11T11:56:54.602Z,213.50
2023-05-11T11:57:54.550Z,212.05
2023-05-11T11:58:54.543Z,212.36
2023-05-11T11:59:54.516Z,212.66
2023-05-11T12:00:54.508Z,211.56
2023-05-11T12:01:54.597Z,210.83
2023-05-11T12:02:54.578Z,190.84
2023-05-11T12:03:54.590Z,182.50
2023-05-11T12:04:54.525Z,189.45
2023-05-11T12:05:54.477Z,186.65
2023-05-11T12:06:54.481Z,191.56
2023-05-11T12:07:54.467Z,195.00
2023-05-11T12:08:54.481Z,196.75
2023-05-11T12:09:54.517Z,200.80
2023-05-11T12:10:54.440Z,202.50
2023-05-11T12:11:54.431Z,203.79
2023-05-11T12:12:54.427Z,203.29
2023-05-11T12:13:54.424Z,202.64
2023-05-11T12:14:54.416Z,196.76
2023-05-11T12:15:54.411Z,199.53
2023-05-11T12:16:54.576Z,201.33
2023-05-11T12:17:55.058Z,202.03
2023-05-11T12:18:54.474Z,202.40
2023-05-11T12:19:54.437Z,201.94
2023-05-11T12:20:54.454Z,199.93
2023-05-11T12:21:54.492Z,202.55
2023-05-11T12:22:54.516Z,202.69
2023-05-11T12:23:54.546Z,203.44
2023-05-11T12:24:54.574Z,200.85
2023-05-11T12:25:54.636Z,203.15
2023-05-11T12:26:54.616Z,192.17
2023-05-11T12:27:54.611Z,190.24
2023-05-11T12:28:54.623Z,189.98
2023-05-11T12:29:54.619Z,171.08
2023-05-11T12:30:54.663Z,113.50
2023-05-11T12:31:54.716Z,100.55
2023-05-11T12:32:57.522Z,75.07
2023-05-11T12:33:54.782Z,89.25
2023-05-11T12:34:54.704Z,103.25
2023-05-11T12:35:54.714Z,107.68
2023-05-11T12:36:54.687Z,111.81
2023-05-11T12:37:54.713Z,114.92
2023-05-11T12:38:54.686Z,120.58
2023-05-11T12:39:54.694Z,121.57
2023-05-11T12:40:54.663Z,130.16
2023-05-11T12:41:54.658Z,135.35
2023-05-11T12:42:54.653Z,139.62
2023-05-11T12:43:54.642Z,140.72
2023-05-11T12:44:54.636Z,138.64